Terminal Aerodrome Forecast
Issued by NWS

Home | Current Version | Previous Version | Text Only | Print | Product List | Glossary On
Versions: 1 2 3 4 5 6 7 8 9 10 11 12 13 14 15 16 17 18 19 20 21 22
000
FTUS41 KCLE 301739
TAFFDY
TAF
KFDY 301739Z 3018/0118 18018G28KT P6SM BKN035 OVC080
      TEMPO 3022/3024 3SM TSRA OVC025CB
     FM010100 18015G22KT P6SM SCT035 BKN080
     FM010900 20015G30KT P6SM -SHRA OVC050
      TEMPO 0109/0111 3SM TSRA OVC025CB
     FM011300 22020G35KT P6SM BKN040=

USA.gov is the U.S. government's official web portal to all federal, state and local government web resources and services.